Time;durP1;ratioP1;P1;durP2;ratioP2;P2;SDS_P1;SDS_P2;PMS_P1;PMS_P2;Temp;Humidity;BMP_temperature;BMP_pressure;BME280_temperature;BME280_humidity;BME280_pressure;Samples;Min_cycle;Max_cycle;Signal;HPM_P1;HPM_P2
2021/05/01 00:01:46;;;;;;;;;;;18.40;99.90;;;;;;4996871;28;19909;-72
2021/05/01 00:04:12;;;;;;;;;;;18.40;99.90;;;;;;4996809;28;20135;-71
2021/05/01 00:06:39;;;;;;;;;;;18.40;99.90;;;;;;4996745;28;19932;-73
2021/05/01 00:09:06;;;;;;;;;;;18.50;99.90;;;;;;4978939;28;19917;-72
2021/05/01 00:11:33;;;;;;;;;;;18.40;99.90;;;;;;4996672;28;20030;-73
2021/05/01 00:13:59;;;;;;;;;;;18.40;99.90;;;;;;4996648;28;19993;-73
2021/05/01 00:16:27;;;;;;;;;;;18.40;99.90;;;;;;4996744;28;19922;-72
2021/05/01 00:18:55;;;;;;;;;;;18.40;99.90;;;;;;4996676;28;20357;-73
2021/05/01 00:21:22;;;;;;;;;;;18.40;99.90;;;;;;4996550;28;19945;-73
2021/05/01 00:23:48;;;;;;;;;;;18.50;99.90;;;;;;4995984;28;19979;-71
2021/05/01 00:26:15;;;;;;;;;;;18.60;99.90;;;;;;4996045;28;20427;-71
2021/05/01 00:28:42;;;;;;;;;;;18.60;99.90;;;;;;4996075;28;19917;-71
2021/05/01 00:31:09;;;;;;;;;;;18.60;99.90;;;;;;4996213;28;19918;-70
2021/05/01 00:33:38;;;;;;;;;;;18.70;99.90;;;;;;4996143;28;19917;-71
2021/05/01 00:36:05;;;;;;;;;;;18.70;99.90;;;;;;4996155;28;19917;-72
2021/05/01 00:38:31;;;;;;;;;;;18.80;99.90;;;;;;4996780;28;19910;-72
2021/05/01 00:40:59;;;;;;;;;;;18.70;99.90;;;;;;4997557;28;19986;-71
2021/05/01 00:43:27;;;;;;;;;;;18.80;99.90;;;;;;4996277;28;20357;-72
2021/05/01 00:45:53;;;;;;;;;;;18.90;99.90;;;;;;4995055;28;20382;-72
2021/05/01 00:48:20;;;;;;;;;;;19.00;99.90;;;;;;4995641;28;19945;-72
2021/05/01 00:50:47;;;;;;;;;;;19.00;99.90;;;;;;4995242;28;20415;-70
2021/05/01 00:53:14;;;;;;;;;;;19.00;99.90;;;;;;4995279;28;19918;-70
2021/05/01 00:55:41;;;;;;;;;;;19.00;99.90;;;;;;4995469;28;20040;-70
2021/05/01 00:58:09;;;;;;;;;;;19.10;99.90;;;;;;4995363;28;20024;-69
2021/05/01 01:03:20;;;;;;;;;;;19.10;99.90;;;;;;4995455;28;19933;-70
2021/05/01 01:05:47;;;;;;;;;;;19.30;99.90;;;;;;4995348;28;20353;-72
2021/05/01 01:08:14;;;;;;;;;;;19.50;99.90;;;;;;4995129;28;19944;-70
2021/05/01 01:10:41;;;;;;;;;;;19.80;99.90;;;;;;4995147;28;19940;-70
2021/05/01 01:13:08;;;;;;;;;;;20.10;99.90;;;;;;4994816;28;19910;-70
2021/05/01 01:15:34;;;;;;;;;;;20.20;99.90;;;;;;4994444;28;19973;-70
2021/05/01 01:18:01;;;;;;;;;;;20.20;99.90;;;;;;4994933;28;20400;-72
2021/05/01 01:20:28;;;;;;;;;;;20.10;99.90;;;;;;4994821;28;19914;-71
2021/05/01 01:22:55;;;;;;;;;;;20.00;99.90;;;;;;4994572;28;19920;-70
2021/05/01 01:25:29;;;;;;;;;;;20.10;99.90;;;;;;4994785;28;19910;-71
2021/05/01 01:27:55;;;;;;;;;;;20.10;99.90;;;;;;4993600;28;19980;-72
2021/05/01 01:30:30;;;;;;;;;;;20.00;99.90;;;;;;4994240;28;19910;-71
2021/05/01 01:32:58;;;;;;;;;;;20.00;99.90;;;;;;4994352;28;20337;-71
2021/05/01 01:35:24;;;;;;;;;;;19.90;99.90;;;;;;4994512;28;19914;-71
2021/05/01 01:37:52;;;;;;;;;;;19.90;99.90;;;;;;4994454;28;19910;-72
2021/05/01 01:40:19;;;;;;;;;;;19.90;99.90;;;;;;4993303;28;19941;-73
2021/05/01 01:42:46;;;;;;;;;;;20.10;99.90;;;;;;4993944;28;19928;-71
2021/05/01 01:45:14;;;;;;;;;;;20.10;99.90;;;;;;4993811;28;19910;-72
2021/05/01 01:47:41;;;;;;;;;;;20.10;99.90;;;;;;4994131;28;20387;-72
2021/05/01 01:50:10;;;;;;;;;;;20.10;99.90;;;;;;4994523;28;19910;-71
2021/05/01 01:52:37;;;;;;;;;;;20.00;99.90;;;;;;4993992;28;20000;-71
2021/05/01 01:55:05;;;;;;;;;;;20.00;99.90;;;;;;4994012;28;20495;-70
2021/05/01 01:57:31;;;;;;;;;;;19.90;99.90;;;;;;4994163;28;20056;-70
2021/05/01 01:59:58;;;;;;;;;;;19.90;99.90;;;;;;4993509;28;19917;-68
2021/05/01 02:02:26;;;;;;;;;;;19.90;99.90;;;;;;4994089;28;19917;-70
2021/05/01 02:04:52;;;;;;;;;;;19.90;99.90;;;;;;4993165;28;19977;-70
2021/05/01 02:07:19;;;;;;;;;;;19.90;99.90;;;;;;4994037;28;20277;-70
2021/05/01 02:09:46;;;;;;;;;;;19.90;99.90;;;;;;4994319;28;19996;-70
2021/05/01 02:12:12;;;;;;;;;;;19.90;99.90;;;;;;4994319;28;19917;-70
2021/05/01 02:14:39;;;;;;;;;;;19.90;99.90;;;;;;4993565;28;19920;-68
2021/05/01 02:17:06;;;;;;;;;;;19.90;99.90;;;;;;4993506;28;19918;-69
2021/05/01 02:19:33;;;;;;;;;;;19.90;99.90;;;;;;4993909;28;20005;-72
2021/05/01 02:21:59;;;;;;;;;;;19.90;99.90;;;;;;4992975;28;19910;-71
2021/05/01 02:24:26;;;;;;;;;;;19.90;99.90;;;;;;4992798;28;19910;-70
2021/05/01 02:26:53;;;;;;;;;;;19.90;99.90;;;;;;4992800;28;19914;-72
2021/05/01 02:29:19;;;;;;;;;;;20.00;99.90;;;;;;4993891;28;19916;-70
2021/05/01 02:31:46;;;;;;;;;;;20.10;99.90;;;;;;4993773;28;20329;-71
2021/05/01 02:34:13;;;;;;;;;;;20.20;99.90;;;;;;4993715;28;19945;-70
2021/05/01 02:36:40;;;;;;;;;;;20.30;99.90;;;;;;4993543;28;19918;-70
2021/05/01 02:39:07;;;;;;;;;;;20.30;99.90;;;;;;4993511;28;19910;-70
2021/05/01 02:41:34;;;;;;;;;;;20.50;99.90;;;;;;4993476;28;20296;-69
2021/05/01 02:44:00;;;;;;;;;;;20.60;99.90;;;;;;4994952;28;19925;-69
2021/05/01 02:46:27;;;;;;;;;;;20.80;99.90;;;;;;5007979;28;20424;-69
2021/05/01 02:48:54;;;;;;;;;;;20.80;99.90;;;;;;5011021;28;19909;-71
2021/05/01 02:51:20;;;;;;;;;;;20.80;99.90;;;;;;5011709;28;20375;-69
2021/05/01 02:53:47;;;;;;;;;;;20.80;99.90;;;;;;5013288;28;19910;-72
2021/05/01 02:56:14;;;;;;;;;;;20.90;99.90;;;;;;5013093;28;19996;-70
2021/05/01 02:58:40;;;;;;;;;;;21.00;99.90;;;;;;5011708;28;20021;-71
2021/05/01 03:01:07;;;;;;;;;;;21.00;99.90;;;;;;5010937;28;19960;-68
2021/05/01 03:03:34;;;;;;;;;;;21.00;99.90;;;;;;5011111;28;19920;-72
2021/05/01 03:06:00;;;;;;;;;;;21.10;99.90;;;;;;5010968;28;19909;-70
2021/05/01 03:08:27;;;;;;;;;;;21.10;99.90;;;;;;5010694;28;19909;-70
2021/05/01 03:10:54;;;;;;;;;;;21.10;99.90;;;;;;5010765;28;20340;-71
2021/05/01 03:13:20;;;;;;;;;;;21.00;99.90;;;;;;5010964;28;19917;-71
2021/05/01 03:15:47;;;;;;;;;;;21.00;99.90;;;;;;5010721;28;19917;-69
2021/05/01 03:18:13;;;;;;;;;;;21.00;99.90;;;;;;5013912;28;19916;-71
2021/05/01 03:20:40;;;;;;;;;;;20.80;99.90;;;;;;5015309;28;20233;-69
2021/05/01 03:23:08;;;;;;;;;;;20.80;99.90;;;;;;5015070;28;19910;-71
2021/05/01 03:25:35;;;;;;;;;;;20.80;99.90;;;;;;5016485;28;19913;-70
2021/05/01 03:28:01;;;;;;;;;;;20.90;99.90;;;;;;5016576;28;20331;-69
2021/05/01 03:30:28;;;;;;;;;;;21.00;99.90;;;;;;5016764;28;20400;-69
2021/05/01 03:32:55;;;;;;;;;;;21.00;99.90;;;;;;5016412;28;19909;-72
2021/05/01 03:35:21;;;;;;;;;;;21.00;99.90;;;;;;5016139;28;19917;-71
2021/05/01 03:37:48;;;;;;;;;;;21.00;99.90;;;;;;5016213;28;19941;-72
2021/05/01 03:40:15;;;;;;;;;;;20.90;99.90;;;;;;5016393;28;19957;-70
2021/05/01 03:42:41;;;;;;;;;;;20.90;99.90;;;;;;5016125;28;20350;-71
2021/05/01 03:45:09;;;;;;;;;;;20.80;99.90;;;;;;5016363;28;19918;-69
2021/05/01 03:47:36;;;;;;;;;;;20.70;99.90;;;;;;5016282;28;19913;-71
2021/05/01 03:50:03;;;;;;;;;;;20.70;99.90;;;;;;5016307;28;19909;-70
2021/05/01 03:52:30;;;;;;;;;;;20.60;99.90;;;;;;5015711;28;19999;-71
2021/05/01 03:54:56;;;;;;;;;;;20.70;99.90;;;;;;5016054;28;19913;-72
2021/05/01 03:57:23;;;;;;;;;;;20.80;99.90;;;;;;5016108;28;20460;-72
2021/05/01 03:59:50;;;;;;;;;;;20.70;99.90;;;;;;5015929;28;19941;-70
2021/05/01 04:02:16;;;;;;;;;;;20.70;99.90;;;;;;5015964;28;19909;-71
2021/05/01 04:04:43;;;;;;;;;;;20.60;99.90;;;;;;5015741;28;19944;-70
2021/05/01 04:07:10;;;;;;;;;;;20.70;99.90;;;;;;5015570;28;19940;-71
2021/05/01 04:09:36;;;;;;;;;;;20.70;99.90;;;;;;5015750;28;19910;-69
2021/05/01 04:12:03;;;;;;;;;;;20.80;99.90;;;;;;5015649;28;19909;-72
2021/05/01 04:14:30;;;;;;;;;;;20.80;99.90;;;;;;5015829;28;20416;-70
2021/05/01 04:16:56;;;;;;;;;;;20.80;99.90;;;;;;5015628;28;20368;-70
2021/05/01 04:19:23;;;;;;;;;;;20.80;99.90;;;;;;5015665;28;19916;-70
2021/05/01 04:21:50;;;;;;;;;;;20.80;99.90;;;;;;5015484;28;19932;-70
2021/05/01 04:24:16;;;;;;;;;;;20.80;99.90;;;;;;5015585;28;20000;-71
2021/05/01 04:26:43;;;;;;;;;;;20.90;99.90;;;;;;5015365;28;19910;-70
2021/05/01 04:29:10;;;;;;;;;;;20.90;99.90;;;;;;5014878;28;19955;-69
2021/05/01 04:31:36;;;;;;;;;;;20.90;99.90;;;;;;5015466;28;19925;-70
2021/05/01 04:34:03;;;;;;;;;;;21.00;99.90;;;;;;5015228;28;19909;-70
2021/05/01 04:36:30;;;;;;;;;;;21.20;99.90;;;;;;5015383;28;20380;-71
2021/05/01 04:38:56;;;;;;;;;;;21.20;99.90;;;;;;5015061;28;20479;-71
2021/05/01 04:41:23;;;;;;;;;;;21.20;99.90;;;;;;5015054;28;19917;-70
2021/05/01 04:43:50;;;;;;;;;;;21.10;99.90;;;;;;5015039;28;19910;-71
2021/05/01 04:46:20;;;;;;;;;;;21.20;99.90;;;;;;5015733;28;20249;-72
2021/05/01 04:48:46;;;;;;;;;;;21.00;99.90;;;;;;5015748;28;19976;-71
2021/05/01 04:51:13;;;;;;;;;;;21.00;99.90;;;;;;5015631;28;20368;-72
2021/05/01 04:53:40;;;;;;;;;;;20.80;99.90;;;;;;5015406;28;19945;-70
2021/05/01 04:56:07;;;;;;;;;;;20.80;99.90;;;;;;5015519;28;19979;-71
2021/05/01 04:58:33;;;;;;;;;;;20.70;99.90;;;;;;5015484;28;19914;-71
2021/05/01 05:01:00;;;;;;;;;;;20.60;99.90;;;;;;5015183;28;19909;-70
2021/05/01 05:03:27;;;;;;;;;;;20.60;99.90;;;;;;5015205;28;20335;-71
2021/05/01 05:05:53;;;;;;;;;;;20.60;99.90;;;;;;5016046;28;19910;-70
2021/05/01 05:08:20;;;;;;;;;;;20.60;99.90;;;;;;5010532;28;20431;-70
2021/05/01 05:10:46;;;;;;;;;;;20.60;99.90;;;;;;5012689;28;19956;-70
2021/05/01 05:13:13;;;;;;;;;;;20.60;99.90;;;;;;5014997;28;20353;-70
2021/05/01 05:15:40;;;;;;;;;;;20.60;99.90;;;;;;5014872;28;20022;-70
2021/05/01 05:18:06;;;;;;;;;;;20.50;99.90;;;;;;5014709;28;19925;-70
2021/05/01 05:20:33;;;;;;;;;;;20.50;99.90;;;;;;5014557;28;19909;-70
2021/05/01 05:23:00;;;;;;;;;;;20.50;99.90;;;;;;5014263;28;20451;-71
2021/05/01 05:25:26;;;;;;;;;;;20.50;99.90;;;;;;5014445;28;19910;-71
2021/05/01 05:27:53;;;;;;;;;;;20.50;99.90;;;;;;5014561;28;19916;-71
2021/05/01 05:30:20;;;;;;;;;;;20.50;99.90;;;;;;5014482;28;20252;-70
2021/05/01 05:32:46;;;;;;;;;;;20.40;99.90;;;;;;5013955;28;19913;-71
2021/05/01 05:35:13;;;;;;;;;;;20.50;99.90;;;;;;5014314;28;20367;-69
2021/05/01 05:37:40;;;;;;;;;;;20.50;99.90;;;;;;5014020;28;19968;-69
2021/05/01 05:40:07;;;;;;;;;;;20.60;99.90;;;;;;5013302;28;19909;-69
2021/05/01 05:42:34;;;;;;;;;;;20.60;99.90;;;;;;5013673;28;20407;-70
2021/05/01 05:45:01;;;;;;;;;;;20.60;99.90;;;;;;5013783;28;19910;-72
2021/05/01 05:47:27;;;;;;;;;;;20.50;99.90;;;;;;5014060;28;19909;-71
2021/05/01 05:49:54;;;;;;;;;;;20.50;99.90;;;;;;5013930;28;19909;-71
2021/05/01 05:52:21;;;;;;;;;;;20.50;99.90;;;;;;5013822;28;19996;-71
2021/05/01 05:54:47;;;;;;;;;;;20.40;99.90;;;;;;5013835;28;19914;-71
2021/05/01 05:57:14;;;;;;;;;;;20.30;99.90;;;;;;5013875;28;19926;-71
2021/05/01 05:59:42;;;;;;;;;;;20.30;99.90;;;;;;4996169;28;19909;-70
2021/05/01 06:02:11;;;;;;;;;;;20.30;99.90;;;;;;5013742;28;19910;-70
2021/05/01 06:04:45;;;;;;;;;;;20.20;99.90;;;;;;5013715;28;20360;-71
2021/05/01 06:07:19;;;;;;;;;;;20.20;99.90;;;;;;5013764;28;19909;-72
2021/05/01 06:09:46;;;;;;;;;;;20.30;99.90;;;;;;5013776;28;19914;-71
2021/05/01 06:12:13;;;;;;;;;;;20.30;99.90;;;;;;5013561;28;19910;-71
2021/05/01 06:14:42;;;;;;;;;;;20.30;99.90;;;;;;5013657;28;19917;-69
2021/05/01 06:17:10;;;;;;;;;;;20.20;99.90;;;;;;5013641;28;20399;-72
2021/05/01 06:19:39;;;;;;;;;;;20.10;99.90;;;;;;5013631;28;19909;-72
2021/05/01 06:22:06;;;;;;;;;;;20.10;99.90;;;;;;5013546;28;20357;-72
2021/05/01 06:24:32;;;;;;;;;;;20.00;99.90;;;;;;5013325;28;20044;-72
2021/05/01 06:27:00;;;;;;;;;;;19.90;99.90;;;;;;5013070;28;20278;-71
2021/05/01 06:29:27;;;;;;;;;;;19.90;99.90;;;;;;5013661;28;19918;-71
2021/05/01 06:31:54;;;;;;;;;;;19.90;99.90;;;;;;5010852;28;20363;-71
2021/05/01 06:34:20;;;;;;;;;;;19.80;99.90;;;;;;4993210;28;19972;-70
2021/05/01 06:36:47;;;;;;;;;;;19.70;99.90;;;;;;4993265;28;20012;-72
2021/05/01 06:39:14;;;;;;;;;;;19.70;99.90;;;;;;4993871;28;19917;-72
2021/05/01 06:41:48;;;;;;;;;;;19.70;99.90;;;;;;4993580;28;20005;-72
2021/05/01 06:44:17;;;;;;;;;;;19.70;99.90;;;;;;4993518;28;20420;-71
2021/05/01 06:46:46;;;;;;;;;;;19.70;99.90;;;;;;4993189;28;19917;-70
2021/05/01 06:49:16;;;;;;;;;;;19.70;99.90;;;;;;4992987;28;19913;-71
2021/05/01 06:51:42;;;;;;;;;;;19.70;99.90;;;;;;4995653;28;20372;-70
2021/05/01 06:54:10;;;;;;;;;;;19.70;99.90;;;;;;4997526;28;19913;-69
2021/05/01 06:56:41;;;;;;;;;;;19.70;99.90;;;;;;4997487;28;19953;-71
2021/05/01 06:59:08;;;;;;;;;;;19.60;99.90;;;;;;4997158;28;19952;-71
2021/05/01 07:01:38;;;;;;;;;;;19.60;99.90;;;;;;4997275;28;19910;-70
2021/05/01 07:04:05;;;;;;;;;;;19.50;99.90;;;;;;4996715;28;19917;-72
2021/05/01 07:06:32;;;;;;;;;;;19.50;99.90;;;;;;4997246;28;20383;-69
2021/05/01 07:09:00;;;;;;;;;;;19.50;99.90;;;;;;4979668;28;19910;-71
2021/05/01 07:11:28;;;;;;;;;;;19.50;99.90;;;;;;4996714;28;20365;-70
2021/05/01 07:13:55;;;;;;;;;;;19.50;99.90;;;;;;4997132;28;19960;-69
2021/05/01 07:16:22;;;;;;;;;;;19.40;99.90;;;;;;4996968;28;19921;-70
2021/05/01 07:18:49;;;;;;;;;;;19.50;99.90;;;;;;4996887;28;20004;-69
2021/05/01 07:21:18;;;;;;;;;;;19.50;99.90;;;;;;4997108;28;20349;-70
2021/05/01 07:23:45;;;;;;;;;;;19.40;99.90;;;;;;4996987;28;20285;-71
2021/05/01 07:26:17;;;;;;;;;;;19.50;99.90;;;;;;4996844;28;20336;-71
2021/05/01 07:28:47;;;;;;;;;;;19.40;99.90;;;;;;4996654;28;19910;-69
2021/05/01 07:31:19;;;;;;;;;;;19.50;99.90;;;;;;5014927;28;19917;-71
2021/05/01 07:33:52;;;;;;;;;;;19.50;99.90;;;;;;5016314;28;19909;-69
2021/05/01 07:36:20;;;;;;;;;;;19.50;99.90;;;;;;5015873;28;20383;-70
2021/05/01 07:38:47;;;;;;;;;;;19.50;99.90;;;;;;5016140;28;19909;-71
2021/05/01 07:41:16;;;;;;;;;;;19.50;99.90;;;;;;5015950;28;19984;-69
2021/05/01 07:43:46;;;;;;;;;;;19.50;99.90;;;;;;5016036;28;19909;-70
2021/05/01 07:46:13;;;;;;;;;;;19.50;99.90;;;;;;5015289;28;19956;-70
2021/05/01 07:48:40;;;;;;;;;;;19.50;99.90;;;;;;5016655;28;19932;-69
2021/05/01 07:51:07;;;;;;;;;;;19.40;99.90;;;;;;5016045;28;19910;-72
2021/05/01 07:53:34;;;;;;;;;;;19.40;99.90;;;;;;5016636;28;19976;-71
2021/05/01 07:56:01;;;;;;;;;;;19.40;99.90;;;;;;5016581;28;19925;-70
2021/05/01 07:58:27;;;;;;;;;;;19.40;99.90;;;;;;5017054;28;19956;-69
2021/05/01 08:00:54;;;;;;;;;;;19.40;99.90;;;;;;5017830;28;19909;-72
2021/05/01 08:03:22;;;;;;;;;;;19.40;99.90;;;;;;5017469;28;19909;-71
2021/05/01 08:05:49;;;;;;;;;;;19.40;99.90;;;;;;5021074;28;20387;-71
2021/05/01 08:08:16;;;;;;;;;;;19.40;99.90;;;;;;5020079;28;19909;-71
2021/05/01 08:10:43;;;;;;;;;;;19.40;99.90;;;;;;5017878;28;20364;-73
2021/05/01 08:13:10;;;;;;;;;;;19.40;99.90;;;;;;5016890;28;19916;-71
2021/05/01 08:15:38;;;;;;;;;;;19.30;99.90;;;;;;5015670;28;19996;-70
2021/05/01 08:18:08;;;;;;;;;;;19.30;99.90;;;;;;5015359;28;19909;-72
2021/05/01 08:20:35;;;;;;;;;;;19.30;99.90;;;;;;5015218;28;19965;-70
2021/05/01 08:23:02;;;;;;;;;;;19.30;99.90;;;;;;5015235;28;20004;-71
2021/05/01 08:25:29;;;;;;;;;;;19.30;99.90;;;;;;5015138;28;19913;-72
2021/05/01 08:27:56;;;;;;;;;;;19.30;99.90;;;;;;5015290;28;20057;-68
2021/05/01 08:30:23;;;;;;;;;;;19.20;99.90;;;;;;5015252;28;19910;-72
2021/05/01 08:32:49;;;;;;;;;;;19.30;99.90;;;;;;5015083;28;20368;-72
2021/05/01 08:35:19;;;;;;;;;;;19.20;99.90;;;;;;5015219;28;19909;-70
2021/05/01 08:37:47;;;;;;;;;;;19.10;99.90;;;;;;5015211;28;19925;-70
2021/05/01 08:40:14;;;;;;;;;;;19.20;99.90;;;;;;5014956;28;19909;-72
2021/05/01 08:42:44;;;;;;;;;;;19.20;99.90;;;;;;5015120;28;20016;-70
2021/05/01 08:45:13;;;;;;;;;;;19.10;99.90;;;;;;5015110;28;20312;-70
2021/05/01 08:47:43;;;;;;;;;;;19.10;99.90;;;;;;5015128;28;19909;-70
2021/05/01 08:50:33;;;;;;;;;;;19.10;99.90;;;;;;5014776;28;19988;-69
2021/05/01 08:53:03;;;;;;;;;;;19.10;99.90;;;;;;5014833;28;19950;-70
2021/05/01 08:55:34;;;;;;;;;;;19.10;99.90;;;;;;5014894;28;19910;-70
2021/05/01 08:58:04;;;;;;;;;;;19.10;99.90;;;;;;5014872;28;20268;-71
2021/05/01 09:00:31;;;;;;;;;;;19.10;99.90;;;;;;5014750;28;19945;-71
2021/05/01 09:03:01;;;;;;;;;;;19.10;99.90;;;;;;5014469;28;19967;-70
2021/05/01 09:05:28;;;;;;;;;;;19.10;99.90;;;;;;5014855;28;20280;-71
2021/05/01 09:07:57;;;;;;;;;;;19.10;99.90;;;;;;5014885;28;19916;-71
2021/05/01 09:10:24;;;;;;;;;;;19.10;99.90;;;;;;5014852;28;20360;-70
2021/05/01 09:12:51;;;;;;;;;;;19.10;99.90;;;;;;5014441;28;19909;-68
2021/05/01 09:15:19;;;;;;;;;;;19.00;99.90;;;;;;5014489;28;19936;-69
2021/05/01 09:17:47;;;;;;;;;;;19.00;99.90;;;;;;5014102;28;20353;-70
2021/05/01 09:20:15;;;;;;;;;;;19.00;99.90;;;;;;5014448;28;19974;-70
2021/05/01 09:23:01;;;;;;;;;;;18.90;99.90;;;;;;4996790;28;20280;-70
2021/05/01 09:25:47;;;;;;;;;;;18.90;99.90;;;;;;5014438;28;19909;-69
2021/05/01 09:28:15;;;;;;;;;;;18.90;99.90;;;;;;5014296;28;20316;-69
2021/05/01 09:30:58;;;;;;;;;;;18.90;99.90;;;;;;5014503;28;20387;-70
2021/05/01 09:33:29;;;;;;;;;;;18.90;99.90;;;;;;5014434;28;19913;-69
2021/05/01 09:35:57;;;;;;;;;;;18.90;99.90;;;;;;5013923;28;19913;-71
2021/05/01 09:38:24;;;;;;;;;;;18.90;99.90;;;;;;5015015;28;19983;-70
2021/05/01 09:40:51;;;;;;;;;;;18.90;99.90;;;;;;5015405;28;19952;-72
2021/05/01 09:43:17;;;;;;;;;;;18.80;99.90;;;;;;5014177;28;20008;-71
2021/05/01 09:45:44;;;;;;;;;;;18.80;99.90;;;;;;5014088;28;20049;-69
2021/05/01 09:48:12;;;;;;;;;;;18.90;99.90;;;;;;5014015;28;19916;-70
2021/05/01 09:50:39;;;;;;;;;;;18.90;99.90;;;;;;5013695;28;19935;-70
2021/05/01 09:53:08;;;;;;;;;;;18.90;99.90;;;;;;5013713;28;19910;-72
2021/05/01 09:55:47;;;;;;;;;;;18.90;99.90;;;;;;5013823;28;20245;-71
2021/05/01 09:58:22;;;;;;;;;;;18.90;99.90;;;;;;5013856;28;20013;-71
2021/05/01 10:00:50;;;;;;;;;;;18.80;99.90;;;;;;5013557;28;19929;-71
2021/05/01 10:03:27;;;;;;;;;;;18.80;99.90;;;;;;4996042;28;19956;-69
2021/05/01 10:05:55;;;;;;;;;;;18.80;99.90;;;;;;5013661;28;19909;-70
2021/05/01 10:08:23;;;;;;;;;;;18.80;99.90;;;;;;5013474;28;19909;-71
2021/05/01 10:10:50;;;;;;;;;;;18.80;99.90;;;;;;5013504;28;19916;-70
2021/05/01 10:13:16;;;;;;;;;;;18.80;99.90;;;;;;5013567;28;19910;-71
2021/05/01 10:15:43;;;;;;;;;;;18.80;99.90;;;;;;5013423;28;20360;-70
2021/05/01 10:18:14;;;;;;;;;;;18.70;99.90;;;;;;5013554;28;20364;-72
2021/05/01 10:20:42;;;;;;;;;;;18.80;99.90;;;;;;5013410;28;19949;-70
2021/05/01 10:23:09;;;;;;;;;;;18.80;99.90;;;;;;5013403;28;19925;-71
2021/05/01 10:25:36;;;;;;;;;;;18.80;99.90;;;;;;5013083;28;19909;-70
2021/05/01 10:30:48;;;;;;;;;;;18.80;99.90;;;;;;5013262;28;19910;-72
2021/05/01 10:33:26;;;;;;;;;;;18.80;99.90;;;;;;5013187;28;19952;-71
2021/05/01 10:36:07;;;;;;;;;;;18.80;99.90;;;;;;5013203;28;20276;-72
2021/05/01 10:38:34;;;;;;;;;;;18.80;99.90;;;;;;5013683;28;19922;-72
2021/05/01 10:41:02;;;;;;;;;;;18.80;99.90;;;;;;5012894;28;19913;-70
2021/05/01 10:43:33;;;;;;;;;;;18.80;99.90;;;;;;5013464;28;19917;-70
2021/05/01 10:46:07;;;;;;;;;;;18.70;99.90;;;;;;5013269;28;19945;-71
2021/05/01 10:48:34;;;;;;;;;;;18.70;99.90;;;;;;5013377;28;19914;-72
2021/05/01 10:51:05;;;;;;;;;;;18.80;99.90;;;;;;5012993;28;19968;-71
2021/05/01 10:53:32;;;;;;;;;;;18.80;99.90;;;;;;5013134;28;19979;-71
2021/05/01 10:55:59;;;;;;;;;;;18.80;99.90;;;;;;5012990;28;19917;-71
2021/05/01 10:58:45;;;;;;;;;;;18.80;99.90;;;;;;5013027;28;20364;-70
2021/05/01 11:01:15;;;;;;;;;;;18.70;99.90;;;;;;5013196;28;20016;-71
2021/05/01 11:03:43;;;;;;;;;;;18.80;99.90;;;;;;5012921;28;19968;-71
2021/05/01 11:06:17;;;;;;;;;;;18.80;99.90;;;;;;5012905;28;19910;-71
2021/05/01 11:09:00;;;;;;;;;;;18.80;99.90;;;;;;5012869;28;20004;-69
2021/05/01 11:11:31;;;;;;;;;;;18.80;99.90;;;;;;5013181;28;19909;-72
2021/05/01 11:14:03;;;;;;;;;;;18.80;99.90;;;;;;5012892;28;19917;-70
2021/05/01 11:16:32;;;;;;;;;;;18.90;99.90;;;;;;5012990;28;20459;-70
2021/05/01 11:19:00;;;;;;;;;;;18.80;99.90;;;;;;5012642;28;19935;-72
2021/05/01 11:21:29;;;;;;;;;;;18.80;99.90;;;;;;5012758;28;19916;-72
2021/05/01 11:23:56;;;;;;;;;;;18.80;99.90;;;;;;5013022;28;19956;-72
2021/05/01 11:26:23;;;;;;;;;;;18.80;99.90;;;;;;5013132;28;19910;-72
2021/05/01 11:28:50;;;;;;;;;;;18.80;99.90;;;;;;5012401;28;19909;-74
2021/05/01 11:31:17;;;;;;;;;;;18.80;99.90;;;;;;5010019;28;19909;-71
2021/05/01 11:33:46;;;;;;;;;;;18.80;99.90;;;;;;5012936;28;19953;-72
2021/05/01 11:36:16;;;;;;;;;;;18.80;99.90;;;;;;5012543;28;19987;-70
2021/05/01 11:38:43;;;;;;;;;;;18.80;99.90;;;;;;5014279;28;19917;-70
2021/05/01 11:41:13;;;;;;;;;;;18.80;99.90;;;;;;5016131;28;20016;-72
2021/05/01 11:43:40;;;;;;;;;;;18.80;99.90;;;;;;5015096;28;19916;-71
2021/05/01 11:46:17;;;;;;;;;;;18.80;99.90;;;;;;5016542;28;19993;-72
2021/05/01 11:49:02;;;;;;;;;;;18.70;99.90;;;;;;5016401;28;19916;-70
2021/05/01 11:51:44;;;;;;;;;;;18.70;99.90;;;;;;4998468;28;19920;-68
2021/05/01 11:54:18;;;;;;;;;;;18.70;99.90;;;;;;5015539;28;19968;-71
2021/05/01 11:56:56;;;;;;;;;;;18.70;99.90;;;;;;5015954;28;19917;-71
2021/05/01 11:59:23;;;;;;;;;;;18.70;99.90;;;;;;5015979;28;19928;-71
2021/05/01 12:02:03;;;;;;;;;;;18.70;99.90;;;;;;5016254;28;19913;-71
2021/05/01 12:04:49;;;;;;;;;;;18.70;99.90;;;;;;4998036;28;19993;-72
2021/05/01 12:07:19;;;;;;;;;;;18.70;99.90;;;;;;4985522;28;20019;-72
2021/05/01 12:09:47;;;;;;;;;;;18.60;99.90;;;;;;5015413;28;19968;-72
2021/05/01 12:12:16;;;;;;;;;;;18.60;99.90;;;;;;4998312;28;20001;-71
2021/05/01 12:14:43;;;;;;;;;;;18.60;99.90;;;;;;5015626;28;19996;-72
2021/05/01 12:17:11;;;;;;;;;;;18.60;99.90;;;;;;5015724;28;19917;-72
2021/05/01 12:19:45;;;;;;;;;;;18.50;99.90;;;;;;5015551;28;19909;-72
2021/05/01 12:22:24;;;;;;;;;;;18.50;99.90;;;;;;5015654;28;19959;-71
2021/05/01 12:24:50;;;;;;;;;;;18.50;99.90;;;;;;5015012;28;19973;-72
2021/05/01 12:27:35;;;;;;;;;;;18.50;99.90;;;;;;5015613;28;19959;-71
2021/05/01 12:30:02;;;;;;;;;;;18.50;99.90;;;;;;5015590;28;19964;-72
2021/05/01 12:32:29;;;;;;;;;;;18.50;99.90;;;;;;4997774;28;20020;-72
2021/05/01 12:34:57;;;;;;;;;;;18.50;99.90;;;;;;5014932;28;19985;-71
2021/05/01 12:37:26;;;;;;;;;;;18.50;99.90;;;;;;5015297;28;19924;-71
2021/05/01 12:39:53;;;;;;;;;;;18.50;99.90;;;;;;5014870;28;19975;-71
2021/05/01 12:42:26;;;;;;;;;;;18.40;99.90;;;;;;5015061;28;19922;-71
2021/05/01 12:44:53;;;;;;;;;;;18.40;99.90;;;;;;5015023;28;19910;-71
2021/05/01 12:47:39;;;;;;;;;;;18.40;99.90;;;;;;5015141;28;19909;-71
2021/05/01 12:50:15;;;;;;;;;;;18.50;99.90;;;;;;5004225;28;19909;-72
2021/05/01 12:52:42;;;;;;;;;;;18.50;99.90;;;;;;5015023;28;20345;-70
2021/05/01 12:55:09;;;;;;;;;;;18.50;99.90;;;;;;5014748;28;20265;-71
2021/05/01 12:57:39;;;;;;;;;;;18.40;99.90;;;;;;5014994;28;19921;-71
2021/05/01 13:00:21;;;;;;;;;;;18.40;99.90;;;;;;5015049;28;19913;-72
2021/05/01 13:03:13;;;;;;;;;;;18.40;99.90;;;;;;5014744;28;20276;-70
2021/05/01 13:05:44;;;;;;;;;;;18.40;99.90;;;;;;5014747;28;19917;-71
2021/05/01 13:08:21;;;;;;;;;;;18.30;99.90;;;;;;5014007;28;20004;-71
2021/05/01 13:10:48;;;;;;;;;;;18.30;99.90;;;;;;5014557;28;19956;-71
2021/05/01 13:13:15;;;;;;;;;;;18.20;99.90;;;;;;5014620;28;19914;-70
2021/05/01 13:16:00;;;;;;;;;;;18.20;99.90;;;;;;5014500;28;19957;-70
2021/05/01 13:18:27;;;;;;;;;;;18.30;99.90;;;;;;4996881;28;20001;-71
2021/05/01 13:21:04;;;;;;;;;;;18.20;99.90;;;;;;5014189;28;20000;-71
2021/05/01 13:23:39;;;;;;;;;;;18.20;99.90;;;;;;5013755;28;20008;-70
2021/05/01 13:26:13;;;;;;;;;;;18.20;99.90;;;;;;5014535;28;19916;-70
2021/05/01 13:28:45;;;;;;;;;;;18.20;99.90;;;;;;5014379;28;19910;-71
2021/05/01 13:31:21;;;;;;;;;;;18.20;99.90;;;;;;5014557;28;19913;-72
2021/05/01 13:33:48;;;;;;;;;;;18.10;99.90;;;;;;4996577;28;20402;-72
2021/05/01 13:36:16;;;;;;;;;;;18.10;99.90;;;;;;5014308;28;20016;-70
2021/05/01 13:38:43;;;;;;;;;;;18.10;99.90;;;;;;5013430;28;19910;-69
2021/05/01 13:41:17;;;;;;;;;;;18.10;99.90;;;;;;5014203;28;19964;-70
2021/05/01 13:44:02;;;;;;;;;;;18.10;99.90;;;;;;5014157;28;19910;-70
2021/05/01 13:46:28;;;;;;;;;;;18.00;99.90;;;;;;5014135;28;19909;-71
2021/05/01 13:48:55;;;;;;;;;;;18.00;99.90;;;;;;5013913;28;19963;-70
2021/05/01 13:51:31;;;;;;;;;;;18.00;99.90;;;;;;5014130;28;19910;-71
2021/05/01 13:54:12;;;;;;;;;;;18.00;99.90;;;;;;5013385;28;19917;-72
2021/05/01 13:56:45;;;;;;;;;;;18.00;99.90;;;;;;5012501;28;19921;-70
2021/05/01 13:59:32;;;;;;;;;;;18.00;99.90;;;;;;5013839;28;20360;-71
2021/05/01 14:01:58;;;;;;;;;;;18.00;99.90;;;;;;5012871;28;19996;-70
2021/05/01 14:04:37;;;;;;;;;;;18.00;99.90;;;;;;4996039;28;20352;-71
2021/05/01 14:07:05;;;;;;;;;;;18.00;99.90;;;;;;4993970;28;19909;-72
2021/05/01 14:09:33;;;;;;;;;;;18.00;99.90;;;;;;4994356;28;20275;-70
2021/05/01 14:12:00;;;;;;;;;;;18.00;99.90;;;;;;4994241;28;19910;-71
2021/05/01 14:14:28;;;;;;;;;;;18.00;99.90;;;;;;4994180;28;20371;-72
2021/05/01 14:16:59;;;;;;;;;;;18.00;99.90;;;;;;4993789;28;19941;-71
2021/05/01 14:19:26;;;;;;;;;;;17.90;99.90;;;;;;4994114;28;19997;-72
2021/05/01 14:21:53;;;;;;;;;;;17.90;99.90;;;;;;4993839;28;19941;-70
2021/05/01 14:24:21;;;;;;;;;;;17.90;99.90;;;;;;4976635;28;19917;-70
2021/05/01 14:26:59;;;;;;;;;;;17.90;99.90;;;;;;4993728;28;19910;-70
2021/05/01 14:29:27;;;;;;;;;;;17.90;99.90;;;;;;4993813;28;19914;-71
2021/05/01 14:32:12;;;;;;;;;;;17.80;99.90;;;;;;4993919;28;19910;-70